createdAt,value
2023-05-03T00:01:01.865Z,7.08
2023-05-03T00:03:53.226Z,7.06
2023-05-03T00:06:20.100Z,7.11
2023-05-03T00:08:48.674Z,7.24
2023-05-03T00:11:17.742Z,7.18
2023-05-03T00:13:50.040Z,7.22
2023-05-03T00:16:20.556Z,7.20
2023-05-03T00:18:49.714Z,7.30
2023-05-03T00:21:18.532Z,7.32
2023-05-03T00:23:47.871Z,7.32
2023-05-03T00:26:20.499Z,7.40
2023-05-03T00:28:53.817Z,7.35
2023-05-03T00:31:23.145Z,7.38
2023-05-03T00:33:59.135Z,7.35
2023-05-03T00:36:37.049Z,7.33
2023-05-03T00:39:14.885Z,7.36
2023-05-03T00:41:46.816Z,7.35
2023-05-03T00:44:15.646Z,7.31
2023-05-03T00:46:45.334Z,7.38
2023-05-03T00:49:15.265Z,7.40
2023-05-03T00:51:44.135Z,7.47
2023-05-03T00:54:12.951Z,7.53
2023-05-03T00:56:51.028Z,7.49
2023-05-03T00:59:32.743Z,7.61
2023-05-03T01:02:01.518Z,7.73
2023-05-03T01:04:33.504Z,7.82
2023-05-03T01:07:33.824Z,8.05
2023-05-03T01:10:43.782Z,8.50
2023-05-03T01:13:33.611Z,8.99
2023-05-03T01:16:13.401Z,9.43
2023-05-03T01:18:49.901Z,9.60
2023-05-03T01:21:20.839Z,9.84
2023-05-03T01:24:04.912Z,9.92
2023-05-03T01:26:34.435Z,9.96
2023-05-03T01:29:03.253Z,10.08
2023-05-03T01:31:47.931Z,10.44
2023-05-03T01:34:36.128Z,10.61
2023-05-03T01:37:06.847Z,10.80
2023-05-03T01:40:05.544Z,10.93
2023-05-03T01:42:41.905Z,11.08
2023-05-03T01:45:14.172Z,11.19
2023-05-03T01:47:42.690Z,11.27
2023-05-03T01:50:11.836Z,11.33
2023-05-03T01:52:41.384Z,11.33
2023-05-03T01:55:10.597Z,11.35
2023-05-03T01:57:38.910Z,11.43
2023-05-03T02:00:07.721Z,11.50
2023-05-03T02:02:36.071Z,11.50
2023-05-03T02:05:14.439Z,11.53
2023-05-03T02:07:42.540Z,11.60
2023-05-03T02:10:16.041Z,11.63
2023-05-03T02:12:45.549Z,11.62
2023-05-03T02:15:14.859Z,11.58
2023-05-03T02:17:45.050Z,11.59
2023-05-03T02:20:14.089Z,11.60
2023-05-03T02:22:48.296Z,11.62
2023-05-03T02:25:16.646Z,11.67
2023-05-03T02:27:48.124Z,11.72
2023-05-03T02:30:16.383Z,11.69
2023-05-03T02:32:44.812Z,11.69
2023-05-03T02:35:37.696Z,11.65
2023-05-03T02:38:04.398Z,11.67
2023-05-03T02:40:33.615Z,11.71
2023-05-03T02:43:03.960Z,11.81
2023-05-03T02:45:31.398Z,11.77
2023-05-03T02:48:01.713Z,11.78
2023-05-03T02:50:28.708Z,11.72
2023-05-03T02:52:55.377Z,11.75
2023-05-03T02:55:26.704Z,11.83
2023-05-03T02:57:55.436Z,11.85
2023-05-03T03:00:27.154Z,11.82
2023-05-03T03:02:55.318Z,11.92
2023-05-03T03:05:22.611Z,12.01
2023-05-03T03:07:52.126Z,12.11
2023-05-03T03:10:19.112Z,12.18
2023-05-03T03:12:54.861Z,12.27
2023-05-03T03:15:23.334Z,12.35
2023-05-03T03:17:50.895Z,12.37
2023-05-03T03:20:28.330Z,12.40
2023-05-03T03:22:55.938Z,12.42
2023-05-03T03:25:23.480Z,12.50
2023-05-03T03:27:50.633Z,12.58
2023-05-03T03:30:17.525Z,12.63
2023-05-03T03:32:45.657Z,12.80
2023-05-03T03:35:12.333Z,12.78
2023-05-03T03:37:40.489Z,12.76
2023-05-03T03:40:08.179Z,12.79
2023-05-03T03:42:35.229Z,12.89
2023-05-03T03:45:02.000Z,12.86
2023-05-03T03:47:28.809Z,12.83
2023-05-03T03:49:56.309Z,12.80
2023-05-03T03:52:24.331Z,12.77
2023-05-03T03:54:52.510Z,12.85
2023-05-03T03:57:20.104Z,12.85
2023-05-03T03:59:47.131Z,12.91
2023-05-03T04:02:15.346Z,12.96
2023-05-03T04:04:45.229Z,12.92
2023-05-03T04:07:13.030Z,12.89
2023-05-03T04:09:39.969Z,12.90
2023-05-03T04:12:07.359Z,12.93
2023-05-03T04:14:34.572Z,12.99
2023-05-03T04:17:05.646Z,13.09
2023-05-03T04:19:34.087Z,13.11
2023-05-03T04:22:01.951Z,13.18
2023-05-03T04:24:30.928Z,13.22
2023-05-03T04:27:33.978Z,13.24
2023-05-03T04:30:26.385Z,13.29
2023-05-03T04:32:55.684Z,13.22
2023-05-03T04:35:23.052Z,13.24
2023-05-03T04:37:51.041Z,13.30
2023-05-03T04:40:20.616Z,13.23
2023-05-03T04:42:49.145Z,13.20
2023-05-03T04:45:15.879Z,13.30
2023-05-03T04:47:43.621Z,13.24
2023-05-03T04:50:11.526Z,13.32
2023-05-03T04:52:38.740Z,13.29
2023-05-03T04:55:06.275Z,13.35
2023-05-03T04:57:34.581Z,13.41
2023-05-03T05:00:02.314Z,13.46
2023-05-03T05:02:29.774Z,13.41
2023-05-03T05:04:56.540Z,13.43
2023-05-03T05:07:23.696Z,13.54
2023-05-03T05:09:50.891Z,13.54
2023-05-03T05:12:18.320Z,13.63
2023-05-03T05:14:45.534Z,13.69
2023-05-03T05:17:12.998Z,13.79
2023-05-03T05:19:40.252Z,13.83
2023-05-03T05:22:07.061Z,13.86
2023-05-03T05:24:34.052Z,14.01
2023-05-03T05:27:01.990Z,14.07
2023-05-03T05:29:28.994Z,14.13
2023-05-03T05:31:55.976Z,14.15
2023-05-03T05:34:23.018Z,14.17
2023-05-03T05:36:50.809Z,14.25
2023-05-03T05:39:18.164Z,14.35
2023-05-03T05:41:45.512Z,14.42
2023-05-03T05:44:13.391Z,14.47
2023-05-03T05:46:40.243Z,14.42
2023-05-03T05:49:07.406Z,14.33
2023-05-03T05:51:34.935Z,14.34
2023-05-03T05:54:02.853Z,14.28
2023-05-03T05:56:33.359Z,14.28
2023-05-03T05:59:01.390Z,14.27
2023-05-03T06:01:29.222Z,14.20
2023-05-03T06:03:57.815Z,14.10
2023-05-03T06:06:25.730Z,14.07
2023-05-03T06:08:53.813Z,13.98
2023-05-03T06:11:21.885Z,13.89
2023-05-03T06:13:48.715Z,13.89
2023-05-03T06:16:17.113Z,13.72
2023-05-03T06:18:45.042Z,13.53
2023-05-03T06:21:13.312Z,13.48
2023-05-03T06:23:40.541Z,13.49
2023-05-03T06:26:07.612Z,13.45
2023-05-03T06:28:35.237Z,13.44
2023-05-03T06:31:05.419Z,13.47
2023-05-03T06:33:32.133Z,13.40
2023-05-03T06:35:59.569Z,13.37
2023-05-03T06:38:26.620Z,13.32
2023-05-03T06:40:53.490Z,13.21
2023-05-03T06:43:23.266Z,13.18
2023-05-03T06:45:53.379Z,13.20
2023-05-03T06:48:22.569Z,13.15
2023-05-03T06:50:49.726Z,12.96
2023-05-03T06:53:16.627Z,12.96
2023-05-03T06:55:45.195Z,12.96
2023-05-03T06:58:12.574Z,12.92
2023-05-03T07:00:40.116Z,12.81
2023-05-03T07:03:07.902Z,12.78
2023-05-03T07:05:35.198Z,12.67
2023-05-03T07:08:02.219Z,12.57
2023-05-03T07:10:31.316Z,12.61
2023-05-03T07:12:58.639Z,12.69
2023-05-03T07:15:25.500Z,12.68
2023-05-03T07:17:52.260Z,12.54
2023-05-03T07:20:19.431Z,12.49
2023-05-03T07:22:46.683Z,12.54
2023-05-03T07:25:15.116Z,12.65
2023-05-03T07:27:44.971Z,12.77
2023-05-03T07:30:12.305Z,12.81
2023-05-03T07:32:39.560Z,12.81
2023-05-03T07:35:08.180Z,12.90
2023-05-03T07:37:35.156Z,13.03
2023-05-03T07:40:02.233Z,13.14
2023-05-03T07:42:29.900Z,13.30
2023-05-03T07:44:56.806Z,13.40
2023-05-03T07:47:23.915Z,13.47
2023-05-03T07:49:51.200Z,13.57
2023-05-03T07:52:18.281Z,13.84
2023-05-03T07:54:46.044Z,14.00
2023-05-03T07:57:19.140Z,14.23
2023-05-03T07:59:45.873Z,14.44
2023-05-03T08:02:13.839Z,14.61
2023-05-03T08:04:42.131Z,14.93
2023-05-03T08:07:11.274Z,15.20
2023-05-03T08:09:42.723Z,15.34
2023-05-03T08:12:09.592Z,15.62
2023-05-03T08:14:37.338Z,15.70
2023-05-03T08:17:06.884Z,15.82
2023-05-03T08:19:33.546Z,15.93
2023-05-03T08:22:00.411Z,16.13
2023-05-03T08:24:27.205Z,16.33
2023-05-03T08:26:53.988Z,16.53
2023-05-03T08:29:21.169Z,16.74
2023-05-03T08:31:48.069Z,17.13
2023-05-03T08:34:14.842Z,17.38
2023-05-03T08:36:41.672Z,17.68
2023-05-03T08:39:10.642Z,17.88
2023-05-03T08:41:39.662Z,18.25
2023-05-03T08:44:08.682Z,18.94
2023-05-03T08:46:39.342Z,19.63
2023-05-03T08:49:07.720Z,19.77
2023-05-03T08:51:35.645Z,19.85
2023-05-03T08:54:02.464Z,19.88
2023-05-03T08:56:33.572Z,19.87
2023-05-03T08:59:05.239Z,19.76
2023-05-03T09:01:32.221Z,19.48
2023-05-03T09:03:59.468Z,19.52
2023-05-03T09:06:26.598Z,19.69
2023-05-03T09:08:54.882Z,20.00
2023-05-03T09:11:28.721Z,20.52
2023-05-03T09:14:08.786Z,20.98
2023-05-03T09:16:36.144Z,21.30
2023-05-03T09:19:06.896Z,21.46
2023-05-03T09:21:34.323Z,21.45
2023-05-03T09:24:04.080Z,21.57
2023-05-03T09:26:34.066Z,21.54
2023-05-03T09:29:03.904Z,21.41
2023-05-03T09:31:32.931Z,21.45
2023-05-03T09:34:01.228Z,21.38
2023-05-03T09:36:28.371Z,21.25
2023-05-03T09:38:56.360Z,20.95
2023-05-03T09:41:30.993Z,20.87
2023-05-03T09:44:02.990Z,20.87
2023-05-03T09:46:33.596Z,20.97
2023-05-03T09:49:01.352Z,20.97
2023-05-03T09:51:32.098Z,20.95
2023-05-03T09:53:59.695Z,20.95
2023-05-03T09:56:26.906Z,20.95
2023-05-03T09:58:54.565Z,21.02
2023-05-03T10:01:25.175Z,21.09
2023-05-03T10:03:54.504Z,21.13
2023-05-03T10:06:24.411Z,21.37
2023-05-03T10:09:02.891Z,21.70
2023-05-03T10:11:30.356Z,22.02
2023-05-03T10:13:59.134Z,22.03
2023-05-03T10:16:38.120Z,22.11
2023-05-03T10:19:14.004Z,22.50
2023-05-03T10:22:14.458Z,22.71
2023-05-03T10:25:03.941Z,22.48
2023-05-03T10:27:50.376Z,22.35
2023-05-03T10:30:35.467Z,22.06
2023-05-03T10:33:25.289Z,21.95
2023-05-03T10:35:55.007Z,22.08
2023-05-03T10:38:30.747Z,22.05
2023-05-03T10:41:04.451Z,22.06
2023-05-03T10:43:31.459Z,21.73
2023-05-03T10:46:00.965Z,21.66
2023-05-03T10:48:30.070Z,21.46
2023-05-03T10:50:59.738Z,21.63
2023-05-03T10:53:38.359Z,22.01
2023-05-03T10:56:14.310Z,22.32
2023-05-03T10:58:48.493Z,22.58
2023-05-03T11:01:17.583Z,22.78
2023-05-03T11:03:51.840Z,22.54
2023-05-03T11:06:37.400Z,22.06
2023-05-03T11:09:07.019Z,21.80
2023-05-03T11:11:37.756Z,21.58
2023-05-03T11:14:05.934Z,21.46
2023-05-03T11:16:32.846Z,21.10
2023-05-03T11:19:00.562Z,20.83
2023-05-03T11:21:27.725Z,20.82
2023-05-03T11:23:54.645Z,20.82
2023-05-03T11:26:28.357Z,20.80
2023-05-03T11:28:55.121Z,20.87
2023-05-03T11:31:22.922Z,20.94
2023-05-03T11:33:51.328Z,20.88
2023-05-03T11:36:18.482Z,20.83
2023-05-03T11:38:45.941Z,20.52
2023-05-03T11:41:17.154Z,20.44
2023-05-03T11:43:55.058Z,20.36
2023-05-03T11:46:32.009Z,20.15
2023-05-03T11:48:59.681Z,20.13
2023-05-03T11:51:28.503Z,20.21
2023-05-03T11:54:01.367Z,20.21
2023-05-03T11:56:35.662Z,20.19
2023-05-03T11:59:02.395Z,20.28
2023-05-03T12:01:30.258Z,20.38
2023-05-03T12:04:02.784Z,20.56
2023-05-03T12:06:34.010Z,20.73
2023-05-03T12:09:05.022Z,20.95
2023-05-03T12:11:43.455Z,21.23
2023-05-03T12:14:13.424Z,21.68
2023-05-03T12:16:52.356Z,22.02
2023-05-03T12:22:32.228Z,22.53
2023-05-03T12:24:59.247Z,22.43
2023-05-03T12:27:28.134Z,22.31
2023-05-03T12:29:57.183Z,22.02
2023-05-03T12:32:25.507Z,21.86
2023-05-03T12:34:57.845Z,21.59
2023-05-03T12:37:27.595Z,21.41
2023-05-03T12:40:11.756Z,21.10
2023-05-03T12:42:43.470Z,20.75
2023-05-03T12:45:15.245Z,20.55
2023-05-03T12:47:44.644Z,20.33
2023-05-03T12:50:18.534Z,20.25
2023-05-03T12:52:46.273Z,20.14
2023-05-03T12:55:18.207Z,20.13
2023-05-03T12:57:56.444Z,19.98
2023-05-03T13:00:48.627Z,19.98
2023-05-03T13:03:32.478Z,19.99
2023-05-03T13:06:04.533Z,19.91
2023-05-03T13:11:06.460Z,19.70
2023-05-03T13:13:34.880Z,19.47
2023-05-03T13:16:03.742Z,19.44
2023-05-03T13:18:30.899Z,19.30
2023-05-03T13:20:57.837Z,19.27
2023-05-03T13:23:25.129Z,19.19
2023-05-03T13:25:54.317Z,19.16
2023-05-03T13:28:24.585Z,19.18
2023-05-03T13:30:51.582Z,19.27
2023-05-03T13:33:18.650Z,19.31
2023-05-03T13:35:47.058Z,19.24
2023-05-03T13:38:15.137Z,19.34
2023-05-03T13:40:42.315Z,19.39
2023-05-03T13:43:09.141Z,19.40
2023-05-03T13:45:36.059Z,19.40
2023-05-03T13:48:18.774Z,19.30
2023-05-03T13:50:47.478Z,19.26
2023-05-03T13:53:14.730Z,19.25
2023-05-03T13:55:41.729Z,18.96
2023-05-03T13:58:09.148Z,18.82
2023-05-03T14:00:36.320Z,18.72
2023-05-03T14:03:03.204Z,18.59
2023-05-03T14:05:30.645Z,18.49
2023-05-03T14:07:57.729Z,18.54
2023-05-03T14:10:25.315Z,18.52
2023-05-03T14:12:53.205Z,18.58
2023-05-03T14:15:20.345Z,18.53
2023-05-03T14:17:48.126Z,18.50
2023-05-03T14:20:17.656Z,18.15
2023-05-03T14:22:45.901Z,17.98
2023-05-03T14:25:13.026Z,17.76
2023-05-03T14:27:40.692Z,17.58
2023-05-03T14:30:07.929Z,17.44
2023-05-03T14:32:34.766Z,17.36
2023-05-03T14:35:02.241Z,17.24
2023-05-03T14:37:29.269Z,17.18
2023-05-03T14:39:56.046Z,17.32
2023-05-03T14:42:22.806Z,17.35
2023-05-03T14:44:49.993Z,17.40
2023-05-03T14:47:17.204Z,17.46
2023-05-03T14:49:43.938Z,17.45
2023-05-03T14:52:14.933Z,17.42
2023-05-03T14:54:41.884Z,17.40
2023-05-03T14:57:13.100Z,17.43
2023-05-03T14:59:40.042Z,17.45
2023-05-03T15:02:08.192Z,17.35
2023-05-03T15:04:38.019Z,17.23
2023-05-03T15:07:09.406Z,17.27
2023-05-03T15:09:38.279Z,17.25
2023-05-03T15:12:15.533Z,17.25
2023-05-03T15:14:42.715Z,17.36
2023-05-03T15:17:09.749Z,17.42
2023-05-03T15:19:39.862Z,17.38
2023-05-03T15:22:07.252Z,17.02
2023-05-03T15:24:39.498Z,16.86
2023-05-03T15:27:06.669Z,16.66
2023-05-03T15:29:35.513Z,16.51
2023-05-03T15:32:02.984Z,16.34
2023-05-03T15:34:29.952Z,16.37
2023-05-03T15:36:56.856Z,16.36
2023-05-03T15:39:23.840Z,16.35
2023-05-03T15:41:50.832Z,16.35
2023-05-03T15:44:17.734Z,16.42
2023-05-03T15:46:47.796Z,16.43
2023-05-03T15:49:15.904Z,16.37
2023-05-03T15:51:44.786Z,16.43
2023-05-03T15:54:39.261Z,16.45
2023-05-03T15:57:21.594Z,16.48
2023-05-03T15:59:50.619Z,16.51
2023-05-03T16:02:18.034Z,16.47
2023-05-03T16:04:46.405Z,16.36
2023-05-03T16:07:15.702Z,16.37
2023-05-03T16:09:43.753Z,16.40
2023-05-03T16:12:11.386Z,16.38
2023-05-03T16:14:38.370Z,16.36
2023-05-03T16:17:06.140Z,16.16
2023-05-03T16:19:32.960Z,16.15
2023-05-03T16:22:00.192Z,16.09
2023-05-03T16:24:28.925Z,16.08
2023-05-03T16:26:59.461Z,16.01
2023-05-03T16:29:26.627Z,16.01
2023-05-03T16:31:54.739Z,16.04
2023-05-03T16:34:26.503Z,15.91
2023-05-03T16:37:00.506Z,15.88
2023-05-03T16:39:28.276Z,15.83
2023-05-03T16:41:58.397Z,15.78
2023-05-03T16:44:26.866Z,15.77
2023-05-03T16:46:55.006Z,15.64
2023-05-03T16:49:26.506Z,15.50
2023-05-03T16:51:57.844Z,15.48
2023-05-03T16:54:25.102Z,15.51
2023-05-03T16:56:52.626Z,15.49
2023-05-03T16:59:20.140Z,15.42
2023-05-03T17:01:47.915Z,15.37
2023-05-03T17:04:15.062Z,15.41
2023-05-03T17:06:42.380Z,15.34
2023-05-03T17:09:10.854Z,15.33
2023-05-03T17:11:37.957Z,15.29
2023-05-03T17:14:05.424Z,15.26
2023-05-03T17:16:32.928Z,15.29
2023-05-03T17:19:00.554Z,15.20
2023-05-03T17:21:27.614Z,15.18
2023-05-03T17:23:54.625Z,15.06
2023-05-03T17:26:22.665Z,15.01
2023-05-03T17:28:50.085Z,15.00
2023-05-03T17:31:18.546Z,15.02
2023-05-03T17:33:46.557Z,14.92
2023-05-03T17:36:13.588Z,14.91
2023-05-03T17:38:43.127Z,14.86
2023-05-03T17:41:11.814Z,14.76
2023-05-03T17:43:39.993Z,14.72
2023-05-03T17:46:12.911Z,14.66
2023-05-03T17:48:47.497Z,14.62
2023-05-03T17:51:16.063Z,14.46
2023-05-03T17:53:46.342Z,14.43
2023-05-03T17:56:25.703Z,14.33
2023-05-03T17:58:54.268Z,14.35
2023-05-03T18:01:32.372Z,14.26
2023-05-03T18:04:03.436Z,14.21
2023-05-03T18:06:31.305Z,14.14
2023-05-03T18:08:59.513Z,14.19
2023-05-03T18:11:50.948Z,14.14
2023-05-03T18:14:31.763Z,14.12
2023-05-03T18:16:59.802Z,14.05
2023-05-03T18:20:14.363Z,14.11
2023-05-03T18:22:55.270Z,14.06
2023-05-03T18:25:58.235Z,14.05
2023-05-03T18:28:25.436Z,13.96
2023-05-03T18:30:58.632Z,13.94
2023-05-03T18:33:29.646Z,13.96
2023-05-03T18:35:58.275Z,13.89
2023-05-03T18:38:25.896Z,13.87
2023-05-03T18:41:00.992Z,13.80
2023-05-03T18:43:28.701Z,13.70
2023-05-03T18:46:12.905Z,13.70
2023-05-03T18:48:59.334Z,13.47
2023-05-03T18:51:27.078Z,13.48
2023-05-03T18:53:55.332Z,13.53
2023-05-03T18:56:30.265Z,13.61
2023-05-03T18:58:57.152Z,13.58
2023-05-03T19:02:00.357Z,13.54
2023-05-03T19:04:56.344Z,13.54
2023-05-03T19:07:45.008Z,13.61
2023-05-03T19:10:16.509Z,13.60
2023-05-03T19:12:44.640Z,13.53
2023-05-03T19:15:26.669Z,13.46
2023-05-03T19:18:02.322Z,13.47
2023-05-03T19:20:48.922Z,13.31
2023-05-03T19:23:25.097Z,13.24
2023-05-03T19:25:53.798Z,13.34
2023-05-03T19:28:22.693Z,13.24
2023-05-03T19:30:54.269Z,13.16
2023-05-03T19:33:22.872Z,13.17
2023-05-03T19:35:50.804Z,13.06
2023-05-03T19:38:26.992Z,13.01
2023-05-03T19:40:59.454Z,12.90
2023-05-03T19:43:28.461Z,12.88
2023-05-03T19:46:10.269Z,12.84
2023-05-03T19:48:45.520Z,12.68
2023-05-03T19:51:21.543Z,12.66
2023-05-03T19:53:53.169Z,12.69
2023-05-03T19:56:36.763Z,12.65
2023-05-03T19:59:35.569Z,12.52
2023-05-03T20:01:54.922Z,12.53
2023-05-03T20:04:25.984Z,12.50
2023-05-03T20:06:57.849Z,12.52
2023-05-03T20:09:26.454Z,12.52
2023-05-03T20:12:19.697Z,12.49
2023-05-03T20:14:56.538Z,12.41
2023-05-03T20:17:32.877Z,12.37
2023-05-03T20:25:59.361Z,12.21
2023-05-03T20:28:32.471Z,12.20
2023-05-03T20:30:59.800Z,12.09
2023-05-03T20:33:28.316Z,12.07
2023-05-03T20:35:56.905Z,11.95
2023-05-03T20:38:25.683Z,11.99
2023-05-03T20:40:52.673Z,12.06
2023-05-03T20:43:24.405Z,12.15
2023-05-03T20:45:51.562Z,12.10
2023-05-03T20:48:18.896Z,12.11
2023-05-03T20:50:50.391Z,12.11
2023-05-03T20:53:19.112Z,12.17
2023-05-03T20:55:56.543Z,12.05
2023-05-03T20:58:23.460Z,11.87
2023-05-03T21:00:58.486Z,11.68
2023-05-03T21:03:27.692Z,11.64
2023-05-03T21:05:57.898Z,11.55
2023-05-03T21:08:28.957Z,11.54
2023-05-03T21:10:56.323Z,11.48
2023-05-03T21:13:25.040Z,11.47
2023-05-03T21:15:56.579Z,11.49
2023-05-03T21:18:25.050Z,11.43
2023-05-03T21:20:55.349Z,11.42
2023-05-03T21:23:25.004Z,11.37
2023-05-03T21:25:55.186Z,11.36
2023-05-03T21:28:33.816Z,11.38
2023-05-03T21:31:01.085Z,11.40
2023-05-03T21:33:28.356Z,11.39
2023-05-03T21:35:56.294Z,11.27
2023-05-03T21:38:24.407Z,11.26
2023-05-03T21:40:51.515Z,11.30
2023-05-03T21:43:19.606Z,11.24
2023-05-03T21:45:48.529Z,11.30
2023-05-03T21:48:15.943Z,11.43
2023-05-03T21:50:51.469Z,11.45
2023-05-03T21:53:26.230Z,11.46
2023-05-03T21:56:13.783Z,11.53
2023-05-03T21:58:41.564Z,11.48
2023-05-03T22:01:08.705Z,11.41
2023-05-03T22:03:37.127Z,11.40
2023-05-03T22:06:04.086Z,11.39
2023-05-03T22:08:32.392Z,11.43
2023-05-03T22:11:01.078Z,11.34
2023-05-03T22:13:28.575Z,11.43
2023-05-03T22:15:55.415Z,11.41
2023-05-03T22:18:22.745Z,11.28
2023-05-03T22:20:49.394Z,11.26
2023-05-03T22:23:16.145Z,11.26
2023-05-03T22:25:43.617Z,11.24
2023-05-03T22:28:11.200Z,11.22
2023-05-03T22:30:38.383Z,11.23
2023-05-03T22:33:05.187Z,11.29
2023-05-03T22:35:32.065Z,11.32
2023-05-03T22:37:59.010Z,11.26
2023-05-03T22:40:25.868Z,11.25
2023-05-03T22:42:52.886Z,11.27
2023-05-03T22:45:20.162Z,11.23
2023-05-03T22:47:50.278Z,11.18
2023-05-03T22:50:17.098Z,11.15
2023-05-03T22:52:45.147Z,11.15
2023-05-03T22:55:11.951Z,11.14
2023-05-03T22:57:39.581Z,11.06
2023-05-03T23:00:11.442Z,11.05
2023-05-03T23:02:38.724Z,11.09
2023-05-03T23:05:10.870Z,11.09
2023-05-03T23:07:44.653Z,11.15
2023-05-03T23:10:23.143Z,11.08
2023-05-03T23:12:50.590Z,11.03
2023-05-03T23:15:20.480Z,11.01
2023-05-03T23:17:54.147Z,11.06
2023-05-03T23:20:40.308Z,11.07
2023-05-03T23:23:09.276Z,11.09
2023-05-03T23:25:36.882Z,11.10
2023-05-03T23:28:04.297Z,11.03
2023-05-03T23:30:32.884Z,10.99
2023-05-03T23:33:10.201Z,10.96
2023-05-03T23:35:42.542Z,10.99
2023-05-03T23:38:10.053Z,10.98
2023-05-03T23:40:37.794Z,11.02
2023-05-03T23:43:04.967Z,11.02
2023-05-03T23:45:38.893Z,11.06
2023-05-03T23:48:09.817Z,11.17
2023-05-03T23:50:38.943Z,11.25
2023-05-03T23:53:10.733Z,11.26
2023-05-03T23:55:38.915Z,11.29
2023-05-03T23:58:09.164Z,11.31
